sensor_id;sensor_type;location;lat;lon;timestamp;temperature;humidity
34877;DHT22;21086;44.780;17.194;2023-02-21T00:00:21;8.70;99.90
34877;DHT22;21086;44.780;17.194;2023-02-21T00:03:07;8.60;99.90
34877;DHT22;21086;44.780;17.194;2023-02-21T00:05:53;8.50;99.90
34877;DHT22;21086;44.780;17.194;2023-02-21T00:08:38;8.50;99.90
34877;DHT22;21086;44.780;17.194;2023-02-21T00:11:23;8.50;99.90
34877;DHT22;21086;44.780;17.194;2023-02-21T00:14:09;8.50;99.90
34877;DHT22;21086;44.780;17.194;2023-02-21T00:16:54;8.50;99.90
34877;DHT22;21086;44.780;17.194;2023-02-21T00:19:40;8.70;99.90
34877;DHT22;21086;44.780;17.194;2023-02-21T00:22:28;8.70;99.90
34877;DHT22;21086;44.780;17.194;2023-02-21T00:25:14;8.70;99.90
34877;DHT22;21086;44.780;17.194;2023-02-21T00:28:03;8.70;99.90
34877;DHT22;21086;44.780;17.194;2023-02-21T00:30:49;8.70;99.90
34877;DHT22;21086;44.780;17.194;2023-02-21T00:33:35;8.70;99.90
34877;DHT22;21086;44.780;17.194;2023-02-21T00:36:21;8.50;99.90
34877;DHT22;21086;44.780;17.194;2023-02-21T00:39:06;8.50;99.90
34877;DHT22;21086;44.780;17.194;2023-02-21T00:41:52;8.60;99.90
34877;DHT22;21086;44.780;17.194;2023-02-21T00:44:37;8.70;99.90
34877;DHT22;21086;44.780;17.194;2023-02-21T00:47:23;8.80;99.90
34877;DHT22;21086;44.780;17.194;2023-02-21T00:50:09;8.80;99.90
34877;DHT22;21086;44.780;17.194;2023-02-21T00:52:55;8.70;99.90
34877;DHT22;21086;44.780;17.194;2023-02-21T00:55:41;8.70;99.90
34877;DHT22;21086;44.780;17.194;2023-02-21T00:58:27;8.60;99.90
34877;DHT22;21086;44.780;17.194;2023-02-21T01:01:12;8.50;99.90
34877;DHT22;21086;44.780;17.194;2023-02-21T01:03:58;8.50;99.90
34877;DHT22;21086;44.780;17.194;2023-02-21T01:06:44;8.40;99.90
34877;DHT22;21086;44.780;17.194;2023-02-21T01:09:29;8.30;99.90
34877;DHT22;21086;44.780;17.194;2023-02-21T01:12:15;8.30;99.90
34877;DHT22;21086;44.780;17.194;2023-02-21T01:15:01;8.20;99.90
34877;DHT22;21086;44.780;17.194;2023-02-21T01:17:46;8.30;99.90
34877;DHT22;21086;44.780;17.194;2023-02-21T01:20:32;8.30;99.90
34877;DHT22;21086;44.780;17.194;2023-02-21T01:23:17;8.20;99.90
34877;DHT22;21086;44.780;17.194;2023-02-21T01:26:03;8.20;99.90
34877;DHT22;21086;44.780;17.194;2023-02-21T01:28:48;8.10;99.90
34877;DHT22;21086;44.780;17.194;2023-02-21T01:31:34;8.20;99.90
34877;DHT22;21086;44.780;17.194;2023-02-21T01:34:19;8.30;99.90
34877;DHT22;21086;44.780;17.194;2023-02-21T01:37:05;8.30;99.90
34877;DHT22;21086;44.780;17.194;2023-02-21T01:39:51;8.20;99.90
34877;DHT22;21086;44.780;17.194;2023-02-21T01:42:42;8.20;99.90
34877;DHT22;21086;44.780;17.194;2023-02-21T01:48:23;7.90;99.90
34877;DHT22;21086;44.780;17.194;2023-02-21T01:51:11;7.80;99.90
34877;DHT22;21086;44.780;17.194;2023-02-21T01:53:58;7.90;99.90
34877;DHT22;21086;44.780;17.194;2023-02-21T01:56:44;7.80;99.90
34877;DHT22;21086;44.780;17.194;2023-02-21T01:59:32;7.80;99.90
34877;DHT22;21086;44.780;17.194;2023-02-21T02:02:28;7.80;99.90
34877;DHT22;21086;44.780;17.194;2023-02-21T02:05:16;7.80;99.90
34877;DHT22;21086;44.780;17.194;2023-02-21T02:08:03;7.90;99.90
34877;DHT22;21086;44.780;17.194;2023-02-21T02:10:52;7.90;99.90
34877;DHT22;21086;44.780;17.194;2023-02-21T02:14:12;7.90;99.90
34877;DHT22;21086;44.780;17.194;2023-02-21T02:16:56;8.00;99.90
34877;DHT22;21086;44.780;17.194;2023-02-21T02:33:59;7.70;99.90
34877;DHT22;21086;44.780;17.194;2023-02-21T02:36:33;7.70;99.90
34877;DHT22;21086;44.780;17.194;2023-02-21T02:39:04;7.70;99.90
34877;DHT22;21086;44.780;17.194;2023-02-21T02:42:10;7.70;99.90
34877;DHT22;21086;44.780;17.194;2023-02-21T02:44:49;7.70;99.90
34877;DHT22;21086;44.780;17.194;2023-02-21T02:47:22;7.70;99.90
34877;DHT22;21086;44.780;17.194;2023-02-21T02:49:50;7.60;99.90
34877;DHT22;21086;44.780;17.194;2023-02-21T02:52:17;7.60;99.90
34877;DHT22;21086;44.780;17.194;2023-02-21T02:54:44;7.60;99.90
34877;DHT22;21086;44.780;17.194;2023-02-21T02:57:11;7.50;99.90
34877;DHT22;21086;44.780;17.194;2023-02-21T02:59:43;7.50;99.90
34877;DHT22;21086;44.780;17.194;2023-02-21T03:08:02;7.30;99.90
34877;DHT22;21086;44.780;17.194;2023-02-21T03:10:46;7.30;99.90
34877;DHT22;21086;44.780;17.194;2023-02-21T03:13:21;7.30;99.90
34877;DHT22;21086;44.780;17.194;2023-02-21T03:15:56;7.40;99.90
34877;DHT22;21086;44.780;17.194;2023-02-21T03:18:42;7.50;99.90
34877;DHT22;21086;44.780;17.194;2023-02-21T03:21:23;7.60;99.90
34877;DHT22;21086;44.780;17.194;2023-02-21T03:23:53;7.70;99.90
34877;DHT22;21086;44.780;17.194;2023-02-21T03:26:24;7.70;99.90
34877;DHT22;21086;44.780;17.194;2023-02-21T03:28:52;7.80;99.90
34877;DHT22;21086;44.780;17.194;2023-02-21T03:31:24;7.80;99.90
34877;DHT22;21086;44.780;17.194;2023-02-21T03:33:52;7.80;99.90
34877;DHT22;21086;44.780;17.194;2023-02-21T03:36:20;7.80;99.90
34877;DHT22;21086;44.780;17.194;2023-02-21T03:38:48;7.80;99.90
34877;DHT22;21086;44.780;17.194;2023-02-21T03:41:15;7.80;99.90
34877;DHT22;21086;44.780;17.194;2023-02-21T03:43:42;7.60;99.90
34877;DHT22;21086;44.780;17.194;2023-02-21T03:46:09;7.60;99.90
34877;DHT22;21086;44.780;17.194;2023-02-21T03:48:36;7.60;99.90
34877;DHT22;21086;44.780;17.194;2023-02-21T03:51:03;7.70;99.90
34877;DHT22;21086;44.780;17.194;2023-02-21T03:53:30;7.70;99.90
34877;DHT22;21086;44.780;17.194;2023-02-21T03:55:56;7.70;99.90
34877;DHT22;21086;44.780;17.194;2023-02-21T03:58:23;7.60;99.90
34877;DHT22;21086;44.780;17.194;2023-02-21T04:00:50;7.60;99.90
34877;DHT22;21086;44.780;17.194;2023-02-21T04:03:19;7.60;99.90
34877;DHT22;21086;44.780;17.194;2023-02-21T04:05:46;7.70;99.90
34877;DHT22;21086;44.780;17.194;2023-02-21T04:08:13;7.70;99.90
34877;DHT22;21086;44.780;17.194;2023-02-21T04:10:40;7.70;99.90
34877;DHT22;21086;44.780;17.194;2023-02-21T04:13:18;7.70;99.90
34877;DHT22;21086;44.780;17.194;2023-02-21T04:15:45;7.60;99.90
34877;DHT22;21086;44.780;17.194;2023-02-21T04:18:12;7.70;99.90
34877;DHT22;21086;44.780;17.194;2023-02-21T04:20:39;7.70;99.90
34877;DHT22;21086;44.780;17.194;2023-02-21T04:23:06;7.60;99.90
34877;DHT22;21086;44.780;17.194;2023-02-21T04:25:33;7.60;99.90
34877;DHT22;21086;44.780;17.194;2023-02-21T04:28:01;7.60;99.90
34877;DHT22;21086;44.780;17.194;2023-02-21T04:30:28;7.50;99.90
34877;DHT22;21086;44.780;17.194;2023-02-21T04:32:54;7.60;99.90
34877;DHT22;21086;44.780;17.194;2023-02-21T04:35:21;7.50;99.90
34877;DHT22;21086;44.780;17.194;2023-02-21T04:37:48;7.50;99.90
34877;DHT22;21086;44.780;17.194;2023-02-21T04:40:15;7.50;99.90
34877;DHT22;21086;44.780;17.194;2023-02-21T04:42:43;7.50;99.90
34877;DHT22;21086;44.780;17.194;2023-02-21T04:45:10;7.40;99.90
34877;DHT22;21086;44.780;17.194;2023-02-21T04:47:36;7.30;99.90
34877;DHT22;21086;44.780;17.194;2023-02-21T04:50:04;7.30;99.90
34877;DHT22;21086;44.780;17.194;2023-02-21T04:52:31;7.30;99.90
34877;DHT22;21086;44.780;17.194;2023-02-21T04:54:59;7.30;99.90
34877;DHT22;21086;44.780;17.194;2023-02-21T04:57:25;7.30;99.90
34877;DHT22;21086;44.780;17.194;2023-02-21T04:59:57;7.40;99.90
34877;DHT22;21086;44.780;17.194;2023-02-21T05:02:25;7.40;99.90
34877;DHT22;21086;44.780;17.194;2023-02-21T05:04:53;7.40;99.90
34877;DHT22;21086;44.780;17.194;2023-02-21T05:07:20;7.40;99.90
34877;DHT22;21086;44.780;17.194;2023-02-21T05:09:47;7.40;99.90
34877;DHT22;21086;44.780;17.194;2023-02-21T05:12:14;7.40;99.90
34877;DHT22;21086;44.780;17.194;2023-02-21T05:14:41;7.30;99.90
34877;DHT22;21086;44.780;17.194;2023-02-21T05:17:09;7.30;99.90
34877;DHT22;21086;44.780;17.194;2023-02-21T05:19:36;7.40;99.90
34877;DHT22;21086;44.780;17.194;2023-02-21T05:22:03;7.30;99.90
34877;DHT22;21086;44.780;17.194;2023-02-21T05:24:33;7.30;99.90
34877;DHT22;21086;44.780;17.194;2023-02-21T05:27:01;7.20;99.90
34877;DHT22;21086;44.780;17.194;2023-02-21T05:29:28;7.30;99.90
34877;DHT22;21086;44.780;17.194;2023-02-21T05:31:55;7.30;99.90
34877;DHT22;21086;44.780;17.194;2023-02-21T05:34:22;7.30;99.90
34877;DHT22;21086;44.780;17.194;2023-02-21T05:36:49;7.40;99.90
34877;DHT22;21086;44.780;17.194;2023-02-21T05:39:16;7.40;99.90
34877;DHT22;21086;44.780;17.194;2023-02-21T05:41:50;7.40;99.90
34877;DHT22;21086;44.780;17.194;2023-02-21T05:44:17;7.40;99.90
34877;DHT22;21086;44.780;17.194;2023-02-21T05:46:44;7.40;99.90
34877;DHT22;21086;44.780;17.194;2023-02-21T05:49:12;7.30;99.90
34877;DHT22;21086;44.780;17.194;2023-02-21T05:51:41;7.30;99.90
34877;DHT22;21086;44.780;17.194;2023-02-21T05:54:14;7.30;99.90
34877;DHT22;21086;44.780;17.194;2023-02-21T05:56:42;7.20;99.90
34877;DHT22;21086;44.780;17.194;2023-02-21T05:59:10;7.30;99.90
34877;DHT22;21086;44.780;17.194;2023-02-21T06:01:37;7.30;99.90
34877;DHT22;21086;44.780;17.194;2023-02-21T06:04:05;7.40;99.90
34877;DHT22;21086;44.780;17.194;2023-02-21T06:06:34;7.50;99.90
34877;DHT22;21086;44.780;17.194;2023-02-21T06:09:02;7.50;99.90
34877;DHT22;21086;44.780;17.194;2023-02-21T06:11:32;7.60;99.90
34877;DHT22;21086;44.780;17.194;2023-02-21T06:14:00;7.60;99.90
34877;DHT22;21086;44.780;17.194;2023-02-21T06:16:33;7.60;99.90
34877;DHT22;21086;44.780;17.194;2023-02-21T06:19:01;7.70;99.90
34877;DHT22;21086;44.780;17.194;2023-02-21T06:21:29;7.80;99.90
34877;DHT22;21086;44.780;17.194;2023-02-21T06:23:55;7.80;99.90
34877;DHT22;21086;44.780;17.194;2023-02-21T06:26:23;7.90;99.90
34877;DHT22;21086;44.780;17.194;2023-02-21T06:28:50;7.90;99.90
34877;DHT22;21086;44.780;17.194;2023-02-21T06:31:19;8.00;99.90
34877;DHT22;21086;44.780;17.194;2023-02-21T06:33:47;8.10;99.90
34877;DHT22;21086;44.780;17.194;2023-02-21T06:36:17;8.30;99.90
34877;DHT22;21086;44.780;17.194;2023-02-21T06:38:45;8.30;99.90
34877;DHT22;21086;44.780;17.194;2023-02-21T06:41:15;8.40;99.90
34877;DHT22;21086;44.780;17.194;2023-02-21T06:43:42;8.50;99.90
34877;DHT22;21086;44.780;17.194;2023-02-21T06:46:20;8.60;99.90
34877;DHT22;21086;44.780;17.194;2023-02-21T06:48:49;8.70;99.90
34877;DHT22;21086;44.780;17.194;2023-02-21T06:51:17;8.70;99.90
34877;DHT22;21086;44.780;17.194;2023-02-21T06:53:48;8.80;99.90
34877;DHT22;21086;44.780;17.194;2023-02-21T06:56:16;8.70;99.90
34877;DHT22;21086;44.780;17.194;2023-02-21T06:58:43;8.90;99.90
34877;DHT22;21086;44.780;17.194;2023-02-21T07:01:10;9.00;99.90
34877;DHT22;21086;44.780;17.194;2023-02-21T07:03:40;9.00;99.90
34877;DHT22;21086;44.780;17.194;2023-02-21T07:06:09;9.10;99.90
34877;DHT22;21086;44.780;17.194;2023-02-21T07:08:36;9.30;99.90
34877;DHT22;21086;44.780;17.194;2023-02-21T07:11:03;9.40;99.90
34877;DHT22;21086;44.780;17.194;2023-02-21T07:13:32;9.40;99.90
34877;DHT22;21086;44.780;17.194;2023-02-21T07:16:00;9.60;99.90
34877;DHT22;21086;44.780;17.194;2023-02-21T07:18:27;9.80;99.90
34877;DHT22;21086;44.780;17.194;2023-02-21T07:20:55;9.80;99.90
34877;DHT22;21086;44.780;17.194;2023-02-21T07:23:21;10.00;99.90
34877;DHT22;21086;44.780;17.194;2023-02-21T07:25:49;10.10;99.90
34877;DHT22;21086;44.780;17.194;2023-02-21T07:28:16;10.20;99.90
34877;DHT22;21086;44.780;17.194;2023-02-21T07:30:43;10.30;99.90
34877;DHT22;21086;44.780;17.194;2023-02-21T07:33:10;10.40;99.90
34877;DHT22;21086;44.780;17.194;2023-02-21T07:35:37;10.50;99.90
34877;DHT22;21086;44.780;17.194;2023-02-21T07:38:04;10.60;99.90
34877;DHT22;21086;44.780;17.194;2023-02-21T07:40:31;10.60;99.90
34877;DHT22;21086;44.780;17.194;2023-02-21T07:42:58;10.80;99.90
34877;DHT22;21086;44.780;17.194;2023-02-21T07:45:24;10.90;99.90
34877;DHT22;21086;44.780;17.194;2023-02-21T07:47:52;11.00;99.90
34877;DHT22;21086;44.780;17.194;2023-02-21T07:50:19;11.10;99.90
34877;DHT22;21086;44.780;17.194;2023-02-21T07:52:46;11.10;99.90
34877;DHT22;21086;44.780;17.194;2023-02-21T07:55:13;11.30;99.90
34877;DHT22;21086;44.780;17.194;2023-02-21T07:57:40;11.40;99.90
34877;DHT22;21086;44.780;17.194;2023-02-21T08:00:07;11.60;99.90
34877;DHT22;21086;44.780;17.194;2023-02-21T08:02:35;11.80;99.90
34877;DHT22;21086;44.780;17.194;2023-02-21T08:05:04;12.00;99.90
34877;DHT22;21086;44.780;17.194;2023-02-21T08:07:31;12.10;99.90
34877;DHT22;21086;44.780;17.194;2023-02-21T08:09:58;12.30;99.90
34877;DHT22;21086;44.780;17.194;2023-02-21T08:12:25;12.40;99.90
34877;DHT22;21086;44.780;17.194;2023-02-21T08:14:52;12.60;99.90
34877;DHT22;21086;44.780;17.194;2023-02-21T08:17:19;12.80;99.90
34877;DHT22;21086;44.780;17.194;2023-02-21T08:19:45;13.00;99.90
34877;DHT22;21086;44.780;17.194;2023-02-21T08:22:12;13.10;99.90
34877;DHT22;21086;44.780;17.194;2023-02-21T08:24:40;13.30;99.90
34877;DHT22;21086;44.780;17.194;2023-02-21T08:27:07;13.40;99.90
34877;DHT22;21086;44.780;17.194;2023-02-21T08:29:34;13.60;99.90
34877;DHT22;21086;44.780;17.194;2023-02-21T08:32:01;13.80;99.90
34877;DHT22;21086;44.780;17.194;2023-02-21T08:34:28;14.20;99.90
34877;DHT22;21086;44.780;17.194;2023-02-21T08:36:55;14.30;99.90
34877;DHT22;21086;44.780;17.194;2023-02-21T08:39:22;14.50;99.90
34877;DHT22;21086;44.780;17.194;2023-02-21T08:41:50;14.80;99.90
34877;DHT22;21086;44.780;17.194;2023-02-21T08:44:18;15.00;99.90
34877;DHT22;21086;44.780;17.194;2023-02-21T08:46:48;15.30;99.90
34877;DHT22;21086;44.780;17.194;2023-02-21T08:49:15;15.60;99.90
34877;DHT22;21086;44.780;17.194;2023-02-21T08:51:42;15.70;99.90
34877;DHT22;21086;44.780;17.194;2023-02-21T08:54:09;15.80;99.90
34877;DHT22;21086;44.780;17.194;2023-02-21T08:56:38;16.10;99.90
34877;DHT22;21086;44.780;17.194;2023-02-21T08:59:05;16.20;99.90
34877;DHT22;21086;44.780;17.194;2023-02-21T09:01:34;16.50;99.90
34877;DHT22;21086;44.780;17.194;2023-02-21T09:04:02;16.80;99.90
34877;DHT22;21086;44.780;17.194;2023-02-21T09:06:29;17.00;99.90
34877;DHT22;21086;44.780;17.194;2023-02-21T09:08:56;17.20;99.90
34877;DHT22;21086;44.780;17.194;2023-02-21T09:11:23;17.30;99.90
34877;DHT22;21086;44.780;17.194;2023-02-21T09:13:50;17.40;99.90
34877;DHT22;21086;44.780;17.194;2023-02-21T09:16:20;17.50;99.90
34877;DHT22;21086;44.780;17.194;2023-02-21T09:18:58;17.80;99.90
34877;DHT22;21086;44.780;17.194;2023-02-21T09:21:27;18.10;99.90
34877;DHT22;21086;44.780;17.194;2023-02-21T09:23:55;18.30;99.90
34877;DHT22;21086;44.780;17.194;2023-02-21T09:26:22;18.50;99.90
34877;DHT22;21086;44.780;17.194;2023-02-21T09:28:51;18.70;99.90
34877;DHT22;21086;44.780;17.194;2023-02-21T09:31:18;18.90;99.90
34877;DHT22;21086;44.780;17.194;2023-02-21T09:33:46;19.20;99.90
34877;DHT22;21086;44.780;17.194;2023-02-21T09:36:12;19.60;99.90
34877;DHT22;21086;44.780;17.194;2023-02-21T09:38:39;19.80;99.90
34877;DHT22;21086;44.780;17.194;2023-02-21T09:41:11;20.00;99.90
34877;DHT22;21086;44.780;17.194;2023-02-21T09:43:50;20.30;99.90
34877;DHT22;21086;44.780;17.194;2023-02-21T09:46:33;20.70;99.90
34877;DHT22;21086;44.780;17.194;2023-02-21T09:49:19;21.10;99.90
34877;DHT22;21086;44.780;17.194;2023-02-21T09:51:59;21.40;99.90
34877;DHT22;21086;44.780;17.194;2023-02-21T09:54:46;21.80;99.90
34877;DHT22;21086;44.780;17.194;2023-02-21T09:57:17;22.30;99.90
34877;DHT22;21086;44.780;17.194;2023-02-21T09:59:48;22.60;99.90
34877;DHT22;21086;44.780;17.194;2023-02-21T10:05:27;23.10;99.90
34877;DHT22;21086;44.780;17.194;2023-02-21T10:10:53;23.50;99.90
34877;DHT22;21086;44.780;17.194;2023-02-21T10:16:13;24.20;99.90
34877;DHT22;21086;44.780;17.194;2023-02-21T10:18:58;24.70;99.90
34877;DHT22;21086;44.780;17.194;2023-02-21T10:21:38;25.10;99.90
34877;DHT22;21086;44.780;17.194;2023-02-21T10:24:18;25.90;99.90
34877;DHT22;21086;44.780;17.194;2023-02-21T10:27:12;26.40;99.90
34877;DHT22;21086;44.780;17.194;2023-02-21T10:30:02;27.20;99.90
34877;DHT22;21086;44.780;17.194;2023-02-21T10:32:30;27.90;99.90
34877;DHT22;21086;44.780;17.194;2023-02-21T10:34:58;28.50;99.90
34877;DHT22;21086;44.780;17.194;2023-02-21T10:43:12;29.60;99.90
34877;DHT22;21086;44.780;17.194;2023-02-21T10:48:24;30.80;99.90
34877;DHT22;21086;44.780;17.194;2023-02-21T10:51:03;31.10;99.90
34877;DHT22;21086;44.780;17.194;2023-02-21T10:53:35;31.40;99.90
34877;DHT22;21086;44.780;17.194;2023-02-21T10:56:20;32.00;99.90
34877;DHT22;21086;44.780;17.194;2023-02-21T10:59:05;32.80;99.90
34877;DHT22;21086;44.780;17.194;2023-02-21T11:01:43;34.00;99.90
34877;DHT22;21086;44.780;17.194;2023-02-21T11:07:03;33.00;99.90
34877;DHT22;21086;44.780;17.194;2023-02-21T11:09:40;33.00;99.90
34877;DHT22;21086;44.780;17.194;2023-02-21T11:12:25;33.80;99.90
34877;DHT22;21086;44.780;17.194;2023-02-21T11:17:24;33.30;99.90
34877;DHT22;21086;44.780;17.194;2023-02-21T11:19:55;33.00;99.90
34877;DHT22;21086;44.780;17.194;2023-02-21T11:27:20;32.50;99.90
34877;DHT22;21086;44.780;17.194;2023-02-21T11:29:48;31.60;99.90
34877;DHT22;21086;44.780;17.194;2023-02-21T11:32:33;30.40;99.90
34877;DHT22;21086;44.780;17.194;2023-02-21T11:38:04;28.70;99.90
34877;DHT22;21086;44.780;17.194;2023-02-21T11:48:32;34.60;99.90
34877;DHT22;21086;44.780;17.194;2023-02-21T11:51:16;34.60;99.90
34877;DHT22;21086;44.780;17.194;2023-02-21T11:53:44;34.50;99.90
34877;DHT22;21086;44.780;17.194;2023-02-21T12:01:38;36.60;99.90
34877;DHT22;21086;44.780;17.194;2023-02-21T12:07:01;36.30;99.90
34877;DHT22;21086;44.780;17.194;2023-02-21T12:12:50;35.90;99.90
34877;DHT22;21086;44.780;17.194;2023-02-21T12:15:28;36.70;99.90
34877;DHT22;21086;44.780;17.194;2023-02-21T12:26:50;38.30;99.90
34877;DHT22;21086;44.780;17.194;2023-02-21T12:40:48;42.10;99.90
34877;DHT22;21086;44.780;17.194;2023-02-21T12:43:23;42.40;99.90
34877;DHT22;21086;44.780;17.194;2023-02-21T12:46:26;42.40;99.90
34877;DHT22;21086;44.780;17.194;2023-02-21T12:51:35;41.90;99.90
34877;DHT22;21086;44.780;17.194;2023-02-21T12:54:25;41.30;99.90
34877;DHT22;21086;44.780;17.194;2023-02-21T12:57:06;41.30;99.90
34877;DHT22;21086;44.780;17.194;2023-02-21T13:00:05;40.90;99.60
34877;DHT22;21086;44.780;17.194;2023-02-21T13:05:43;41.20;98.80
34877;DHT22;21086;44.780;17.194;2023-02-21T13:08:16;41.70;98.50
34877;DHT22;21086;44.780;17.194;2023-02-21T13:10:58;41.40;97.50
34877;DHT22;21086;44.780;17.194;2023-02-21T13:13:31;40.40;97.00
34877;DHT22;21086;44.780;17.194;2023-02-21T13:16:04;39.70;95.60
34877;DHT22;21086;44.780;17.194;2023-02-21T13:18:43;39.40;94.80
34877;DHT22;21086;44.780;17.194;2023-02-21T13:23:58;38.90;94.30
34877;DHT22;21086;44.780;17.194;2023-02-21T13:27:27;38.20;93.60
34877;DHT22;21086;44.780;17.194;2023-02-21T13:30:09;37.20;92.90
34877;DHT22;21086;44.780;17.194;2023-02-21T13:32:38;37.30;93.50
34877;DHT22;21086;44.780;17.194;2023-02-21T13:35:08;38.00;94.20
34877;DHT22;21086;44.780;17.194;2023-02-21T13:37:43;38.40;94.40
34877;DHT22;21086;44.780;17.194;2023-02-21T13:40:21;38.70;94.20
34877;DHT22;21086;44.780;17.194;2023-02-21T13:43:22;39.10;94.20
34877;DHT22;21086;44.780;17.194;2023-02-21T13:45:50;39.80;94.70
34877;DHT22;21086;44.780;17.194;2023-02-21T13:48:24;40.50;94.80
34877;DHT22;21086;44.780;17.194;2023-02-21T13:50:57;41.10;94.80
34877;DHT22;21086;44.780;17.194;2023-02-21T13:53:28;41.10;94.60
34877;DHT22;21086;44.780;17.194;2023-02-21T13:58:36;40.80;93.10
34877;DHT22;21086;44.780;17.194;2023-02-21T14:03:55;40.80;92.20
34877;DHT22;21086;44.780;17.194;2023-02-21T14:06:36;40.30;91.40
34877;DHT22;21086;44.780;17.194;2023-02-21T14:09:13;39.20;90.40
34877;DHT22;21086;44.780;17.194;2023-02-21T14:11:47;38.90;90.10
34877;DHT22;21086;44.780;17.194;2023-02-21T14:14:30;38.70;89.50
34877;DHT22;21086;44.780;17.194;2023-02-21T14:17:03;38.00;89.10
34877;DHT22;21086;44.780;17.194;2023-02-21T14:19:36;37.90;88.90
34877;DHT22;21086;44.780;17.194;2023-02-21T14:22:29;37.80;88.70
34877;DHT22;21086;44.780;17.194;2023-02-21T14:25:16;38.10;89.10
34877;DHT22;21086;44.780;17.194;2023-02-21T14:27:44;38.90;90.10
34877;DHT22;21086;44.780;17.194;2023-02-21T14:32:46;39.60;90.60
34877;DHT22;21086;44.780;17.194;2023-02-21T14:35:32;39.40;90.10
34877;DHT22;21086;44.780;17.194;2023-02-21T14:38:05;38.70;87.90
34877;DHT22;21086;44.780;17.194;2023-02-21T14:40:57;38.40;87.00
34877;DHT22;21086;44.780;17.194;2023-02-21T14:47:06;37.30;86.00
34877;DHT22;21086;44.780;17.194;2023-02-21T15:01:36;38.60;87.60
34877;DHT22;21086;44.780;17.194;2023-02-21T15:04:24;38.50;87.00
34877;DHT22;21086;44.780;17.194;2023-02-21T15:09:33;37.90;85.60
34877;DHT22;21086;44.780;17.194;2023-02-21T15:12:02;37.70;85.60
34877;DHT22;21086;44.780;17.194;2023-02-21T15:14:33;37.20;84.70
34877;DHT22;21086;44.780;17.194;2023-02-21T15:17:19;37.20;85.20
34877;DHT22;21086;44.780;17.194;2023-02-21T15:20:03;36.70;84.70
34877;DHT22;21086;44.780;17.194;2023-02-21T15:22:31;36.60;84.30
34877;DHT22;21086;44.780;17.194;2023-02-21T15:24:59;36.00;83.50
34877;DHT22;21086;44.780;17.194;2023-02-21T15:27:27;35.20;93.80
34877;DHT22;21086;44.780;17.194;2023-02-21T15:30:07;34.50;83.20
34877;DHT22;21086;44.780;17.194;2023-02-21T15:32:34;34.10;91.00
34877;DHT22;21086;44.780;17.194;2023-02-21T15:35:04;33.80;84.10
34877;DHT22;21086;44.780;17.194;2023-02-21T15:37:34;33.40;85.10
34877;DHT22;21086;44.780;17.194;2023-02-21T15:40:20;33.20;85.40
34877;DHT22;21086;44.780;17.194;2023-02-21T15:42:50;33.10;86.40
34877;DHT22;21086;44.780;17.194;2023-02-21T15:45:39;32.70;87.10
34877;DHT22;21086;44.780;17.194;2023-02-21T15:48:10;32.20;86.70
34877;DHT22;21086;44.780;17.194;2023-02-21T15:50:39;31.60;88.30
34877;DHT22;21086;44.780;17.194;2023-02-21T15:53:18;31.30;88.60
34877;DHT22;21086;44.780;17.194;2023-02-21T15:55:47;30.80;88.90
34877;DHT22;21086;44.780;17.194;2023-02-21T15:58:21;30.30;89.90
34877;DHT22;21086;44.780;17.194;2023-02-21T16:01:07;29.70;90.10
34877;DHT22;21086;44.780;17.194;2023-02-21T16:03:42;29.10;90.70
34877;DHT22;21086;44.780;17.194;2023-02-21T16:06:29;28.40;91.10
34877;DHT22;21086;44.780;17.194;2023-02-21T16:09:28;27.70;91.40
34877;DHT22;21086;44.780;17.194;2023-02-21T16:14:44;25.50;91.80
34877;DHT22;21086;44.780;17.194;2023-02-21T16:19:44;23.70;93.00
34877;DHT22;21086;44.780;17.194;2023-02-21T16:24:43;22.30;95.10
34877;DHT22;21086;44.780;17.194;2023-02-21T16:27:14;21.80;96.50
34877;DHT22;21086;44.780;17.194;2023-02-21T16:29:41;21.50;97.90
34877;DHT22;21086;44.780;17.194;2023-02-21T16:32:16;21.20;99.60
34877;DHT22;21086;44.780;17.194;2023-02-21T16:34:45;20.80;99.90
34877;DHT22;21086;44.780;17.194;2023-02-21T16:37:13;20.60;99.90
34877;DHT22;21086;44.780;17.194;2023-02-21T16:39:41;20.40;99.90
34877;DHT22;21086;44.780;17.194;2023-02-21T16:42:08;20.20;99.90
34877;DHT22;21086;44.780;17.194;2023-02-21T16:44:35;20.00;99.90
34877;DHT22;21086;44.780;17.194;2023-02-21T16:47:02;19.90;99.90
34877;DHT22;21086;44.780;17.194;2023-02-21T16:49:29;19.70;99.90
34877;DHT22;21086;44.780;17.194;2023-02-21T16:51:56;19.50;99.90
34877;DHT22;21086;44.780;17.194;2023-02-21T16:54:23;19.40;99.90
34877;DHT22;21086;44.780;17.194;2023-02-21T16:56:51;19.30;99.90
34877;DHT22;21086;44.780;17.194;2023-02-21T16:59:20;19.10;99.90
34877;DHT22;21086;44.780;17.194;2023-02-21T17:01:48;20.10;99.90
34877;DHT22;21086;44.780;17.194;2023-02-21T17:04:19;18.90;99.90
34877;DHT22;21086;44.780;17.194;2023-02-21T17:06:52;18.80;99.90
34877;DHT22;21086;44.780;17.194;2023-02-21T17:09:23;18.70;99.90
34877;DHT22;21086;44.780;17.194;2023-02-21T17:11:50;18.50;99.90
34877;DHT22;21086;44.780;17.194;2023-02-21T17:14:19;18.50;99.90
34877;DHT22;21086;44.780;17.194;2023-02-21T17:16:47;18.30;99.90
34877;DHT22;21086;44.780;17.194;2023-02-21T17:19:16;18.20;99.90
34877;DHT22;21086;44.780;17.194;2023-02-21T17:21:43;18.20;99.90
34877;DHT22;21086;44.780;17.194;2023-02-21T17:24:12;18.10;99.90
34877;DHT22;21086;44.780;17.194;2023-02-21T17:26:39;17.90;99.90
34877;DHT22;21086;44.780;17.194;2023-02-21T17:29:08;17.80;99.90
34877;DHT22;21086;44.780;17.194;2023-02-21T17:31:36;17.70;99.90
34877;DHT22;21086;44.780;17.194;2023-02-21T17:34:11;17.60;99.90
34877;DHT22;21086;44.780;17.194;2023-02-21T17:36:39;17.50;99.90
34877;DHT22;21086;44.780;17.194;2023-02-21T17:39:06;17.40;99.90
34877;DHT22;21086;44.780;17.194;2023-02-21T17:41:33;17.20;99.90
34877;DHT22;21086;44.780;17.194;2023-02-21T17:44:00;17.10;99.90
34877;DHT22;21086;44.780;17.194;2023-02-21T17:46:27;17.10;99.90
34877;DHT22;21086;44.780;17.194;2023-02-21T17:48:54;16.90;99.90
34877;DHT22;21086;44.780;17.194;2023-02-21T17:51:23;16.80;99.90
34877;DHT22;21086;44.780;17.194;2023-02-21T17:53:50;16.70;99.90
34877;DHT22;21086;44.780;17.194;2023-02-21T17:56:19;16.60;99.90
34877;DHT22;21086;44.780;17.194;2023-02-21T17:58:47;16.50;99.90
34877;DHT22;21086;44.780;17.194;2023-02-21T18:01:15;16.30;99.90
34877;DHT22;21086;44.780;17.194;2023-02-21T18:03:45;16.20;99.90
34877;DHT22;21086;44.780;17.194;2023-02-21T18:06:14;16.10;99.90
34877;DHT22;21086;44.780;17.194;2023-02-21T18:08:41;16.00;99.90
34877;DHT22;21086;44.780;17.194;2023-02-21T18:11:11;15.90;99.90
34877;DHT22;21086;44.780;17.194;2023-02-21T18:13:39;15.80;99.90
34877;DHT22;21086;44.780;17.194;2023-02-21T18:16:07;15.80;99.90